Kezdőlap
METAR-TAF:

METAR-TAF

Repülőterek :

Flag Island, Minnesota, Amerikai Egyesült Államok

földrajzi szélesség: 49-19N, földrajzi hosszúság: 094-54W, magasság: 329 m

Jelenlegi meteorológiai megfigyelések

A jelentés 5 perccel ezelõtt készült, 03:35 UTC
Szélcsend
Hőmérséklet 3°C
Páratartalom 70%
Légköri nyomás 1017 hPa
Látótávolság: 16.1 km
Derült ég

METAR: KFGN 130335Z AUTO 00000KT 10SM CLR 03/M02 A3002 RMK AO2

Idő: 22:40 (03:40 UTC)


TAF: hiányzik

Meteorológiai megfigyelések és előrejelzések több, mint 4000 repülőtéren (METAR és TAF jelentéseket).

A térképen piros és sárga pontok jelzik az elérhető meteorológiai állomásokat.

Mozgassa az egeret a pont fölött, hogy megjelenjen az állomás neve.

Azután kattintson az időjárási megfigyelések és előrejelzések megtekintéséhez.

A térkép megváltoztatása: kattintson a fekete keresztel jelölt zöld gombra ráközelítéshez, a vonallal jelölt zöld gombra távolításhoz, vagy a zöld nyilakra a szomszédos térképek eléréséhez.


METAR-TAF: